Time;durP1;ratioP1;P1;durP2;ratioP2;P2;SDS_P1;SDS_P2;PMS_P1;PMS_P2;Temp;Humidity;BMP_temperature;BMP_pressure;BME280_temperature;BME280_humidity;BME280_pressure;Samples;Min_cycle;Max_cycle;Signal;HPM_P1;HPM_P2
2023/12/24 00:02:06;;;;;;;182.87;31.57;;;;;;;;;;5064621;28;20593;-51
2023/12/24 00:04:33;;;;;;;244.37;52.43;;;;;;;;;;5057882;28;20496;-51
2023/12/24 00:06:59;;;;;;;228.33;46.70;;;;;;;;;;5056698;28;20306;-51
2023/12/24 00:09:25;;;;;;;278.10;61.80;;;;;;;;;;5053374;28;20199;-51
2023/12/24 00:11:51;;;;;;;154.63;31.50;;;;;;;;;;5063727;28;20792;-51
2023/12/24 00:14:18;;;;;;;183.50;35.03;;;;;;;;;;5066927;28;20222;-51
2023/12/24 00:16:44;;;;;;;176.90;33.93;;;;;;;;;;5062797;28;20249;-52
2023/12/24 00:19:10;;;;;;;157.90;30.03;;;;;;;;;;5063896;28;20215;-51
2023/12/24 00:21:37;;;;;;;233.97;45.13;;;;;;;;;;5054952;28;20206;-51
2023/12/24 00:24:04;;;;;;;255.03;49.83;;;;;;;;;;5062718;28;20202;-51
2023/12/24 00:26:31;;;;;;;243.33;45.77;;;;;;;;;;5052635;28;20214;-51
2023/12/24 00:28:59;;;;;;;165.40;30.27;;;;;;;;;;5058953;28;20223;-52
2023/12/24 00:31:26;;;;;;;252.27;45.53;;;;;;;;;;5059513;28;20252;-52
2023/12/24 00:33:55;;;;;;;164.83;31.57;;;;;;;;;;5058416;28;20226;-52
2023/12/24 00:36:22;;;;;;;188.83;34.03;;;;;;;;;;5060232;28;20819;-50
2023/12/24 00:38:51;;;;;;;177.77;33.03;;;;;;;;;;5057269;28;20588;-50
2023/12/24 00:41:17;;;;;;;208.93;40.33;;;;;;;;;;5060150;28;20766;-50
2023/12/24 00:43:45;;;;;;;216.33;40.60;;;;;;;;;;5065739;28;20214;-50
2023/12/24 00:46:16;;;;;;;187.60;38.57;;;;;;;;;;5051504;28;20284;-51
2023/12/24 00:48:43;;;;;;;221.00;43.47;;;;;;;;;;5059994;28;20178;-50
2023/12/24 00:51:09;;;;;;;202.77;40.30;;;;;;;;;;5062039;28;20206;-50
2023/12/24 00:53:36;;;;;;;198.13;37.17;;;;;;;;;;5052129;28;20207;-50
2023/12/24 00:56:02;;;;;;;162.10;30.30;;;;;;;;;;5042796;28;20223;-50
2023/12/24 00:58:29;;;;;;;272.33;52.00;;;;;;;;;;5045597;28;20219;-50
2023/12/24 01:00:56;;;;;;;253.17;47.37;;;;;;;;;;5045330;28;20291;-50
2023/12/24 01:03:23;;;;;;;187.77;35.90;;;;;;;;;;5052164;28;20445;-50
2023/12/24 01:05:50;;;;;;;177.73;33.13;;;;;;;;;;5036565;28;20230;-50
2023/12/24 01:08:16;;;;;;;193.57;37.73;;;;;;;;;;5042627;28;20414;-51
2023/12/24 01:10:42;;;;;;;178.83;33.47;;;;;;;;;;5046653;28;20227;-51
2023/12/24 01:13:09;;;;;;;202.70;39.37;;;;;;;;;;5049431;28;20668;-50
2023/12/24 01:15:35;;;;;;;181.43;35.20;;;;;;;;;;5061667;28;20192;-51
2023/12/24 01:18:02;;;;;;;214.63;40.00;;;;;;;;;;5046516;28;20594;-50
2023/12/24 01:20:29;;;;;;;211.37;37.47;;;;;;;;;;5042488;28;20851;-50
2023/12/24 01:22:56;;;;;;;305.47;62.87;;;;;;;;;;5046092;28;20693;-51
2023/12/24 01:25:22;;;;;;;215.70;39.73;;;;;;;;;;5044231;28;20272;-50
2023/12/24 01:27:50;;;;;;;216.73;40.93;;;;;;;;;;5045838;28;20248;-50
2023/12/24 01:30:17;;;;;;;229.17;45.90;;;;;;;;;;5052286;28;20195;-51
2023/12/24 01:32:43;;;;;;;187.60;34.27;;;;;;;;;;5055482;28;20225;-50
2023/12/24 01:35:10;;;;;;;173.97;32.57;;;;;;;;;;5046978;28;20222;-50
2023/12/24 01:37:36;;;;;;;297.03;60.90;;;;;;;;;;5043386;28;20211;-50
2023/12/24 01:40:03;;;;;;;221.57;41.23;;;;;;;;;;5042404;28;20215;-51
2023/12/24 01:42:29;;;;;;;224.53;44.10;;;;;;;;;;5045678;28;20608;-50
2023/12/24 01:44:56;;;;;;;171.43;31.87;;;;;;;;;;5050663;28;20270;-50
2023/12/24 01:47:22;;;;;;;214.93;43.20;;;;;;;;;;5042826;28;20315;-50
2023/12/24 01:49:49;;;;;;;197.87;34.80;;;;;;;;;;5046419;28;20218;-50
2023/12/24 01:52:17;;;;;;;158.13;30.57;;;;;;;;;;5046510;28;20306;-51
2023/12/24 01:54:45;;;;;;;233.40;44.33;;;;;;;;;;5044599;28;20205;-50
2023/12/24 01:57:11;;;;;;;250.23;47.93;;;;;;;;;;5049052;28;20179;-50
2023/12/24 01:59:38;;;;;;;208.87;40.40;;;;;;;;;;5045399;28;20309;-50
2023/12/24 02:02:05;;;;;;;164.20;30.50;;;;;;;;;;5048010;28;20869;-51
2023/12/24 02:04:32;;;;;;;238.10;44.03;;;;;;;;;;5045305;28;20634;-51
2023/12/24 02:06:58;;;;;;;216.57;41.90;;;;;;;;;;5051703;28;20716;-50
2023/12/24 02:09:24;;;;;;;227.17;42.13;;;;;;;;;;5045321;28;21519;-51
2023/12/24 02:11:51;;;;;;;145.80;27.77;;;;;;;;;;5049738;28;20576;-51
2023/12/24 02:14:17;;;;;;;237.47;47.67;;;;;;;;;;5046305;28;20223;-50
2023/12/24 02:16:46;;;;;;;203.97;36.50;;;;;;;;;;5051155;28;20323;-50
2023/12/24 02:19:18;;;;;;;228.90;43.80;;;;;;;;;;5046455;28;20306;-50
2023/12/24 02:21:44;;;;;;;216.13;41.53;;;;;;;;;;5048854;28;20231;-50
2023/12/24 02:24:11;;;;;;;196.17;38.27;;;;;;;;;;5042945;28;20191;-50
2023/12/24 02:26:57;;;;;;;177.50;33.00;;;;;;;;;;5040393;28;20513;-50
2023/12/24 02:29:28;;;;;;;199.57;38.80;;;;;;;;;;5046261;28;20257;-50
2023/12/24 02:31:58;;;;;;;200.80;37.23;;;;;;;;;;5044058;28;20258;-50
2023/12/24 02:34:25;;;;;;;192.93;35.87;;;;;;;;;;5051721;28;20226;-50
2023/12/24 02:36:52;;;;;;;226.53;42.63;;;;;;;;;;5044654;28;20450;-50
2023/12/24 02:39:18;;;;;;;244.90;48.00;;;;;;;;;;5049990;28;21345;-50
2023/12/24 02:41:44;;;;;;;226.23;43.03;;;;;;;;;;5043403;28;20226;-50
2023/12/24 02:44:11;;;;;;;166.00;31.67;;;;;;;;;;5044439;28;20649;-50
2023/12/24 02:46:38;;;;;;;309.77;62.70;;;;;;;;;;5043335;28;20229;-50
2023/12/24 02:49:04;;;;;;;222.47;43.07;;;;;;;;;;5037879;28;20360;-50
2023/12/24 02:51:32;;;;;;;223.03;41.87;;;;;;;;;;5045980;28;20846;-50
2023/12/24 02:53:59;;;;;;;208.30;38.73;;;;;;;;;;5043759;28;20539;-50
2023/12/24 02:56:25;;;;;;;164.43;30.23;;;;;;;;;;5043705;28;20742;-50
2023/12/24 02:58:51;;;;;;;217.53;40.53;;;;;;;;;;5042823;28;20492;-50
2023/12/24 03:01:18;;;;;;;237.60;43.67;;;;;;;;;;5036713;28;20231;-50
2023/12/24 03:03:45;;;;;;;211.47;40.60;;;;;;;;;;5045912;28;20230;-51
2023/12/24 03:06:12;;;;;;;162.17;29.17;;;;;;;;;;5048088;28;20197;-50
2023/12/24 03:08:38;;;;;;;194.67;36.17;;;;;;;;;;5042122;28;20223;-51
2023/12/24 03:11:05;;;;;;;203.77;40.90;;;;;;;;;;5049654;28;20221;-50
2023/12/24 03:13:32;;;;;;;210.03;39.73;;;;;;;;;;5047906;28;20210;-51
2023/12/24 03:15:58;;;;;;;209.60;37.93;;;;;;;;;;5043944;28;20268;-51
2023/12/24 03:18:24;;;;;;;152.97;28.73;;;;;;;;;;5041424;28;20585;-50
2023/12/24 03:20:53;;;;;;;175.77;32.73;;;;;;;;;;5049990;28;20396;-50
2023/12/24 03:23:19;;;;;;;211.20;38.53;;;;;;;;;;5049243;28;20214;-50
2023/12/24 03:25:48;;;;;;;261.53;50.67;;;;;;;;;;5041845;28;20214;-50
2023/12/24 03:28:15;;;;;;;235.47;45.63;;;;;;;;;;5036861;28;20673;-50
2023/12/24 03:30:44;;;;;;;207.70;38.13;;;;;;;;;;5042834;28;20450;-50
2023/12/24 03:33:13;;;;;;;246.23;49.63;;;;;;;;;;5047506;28;20569;-50
2023/12/24 03:35:42;;;;;;;190.17;33.73;;;;;;;;;;5044584;28;20552;-50
2023/12/24 03:38:08;;;;;;;197.07;35.53;;;;;;;;;;5053567;28;20705;-51
2023/12/24 03:40:35;;;;;;;153.93;27.10;;;;;;;;;;5043884;28;20222;-51
2023/12/24 03:43:01;;;;;;;169.60;31.77;;;;;;;;;;5038303;28;21166;-51
2023/12/24 03:45:27;;;;;;;167.83;31.20;;;;;;;;;;5044523;28;20183;-51
2023/12/24 03:47:54;;;;;;;223.53;42.30;;;;;;;;;;5051282;28;20174;-51
2023/12/24 03:50:20;;;;;;;207.93;39.97;;;;;;;;;;5046679;28;20215;-51
2023/12/24 03:52:47;;;;;;;229.83;41.50;;;;;;;;;;5045773;28;20540;-51
2023/12/24 03:55:13;;;;;;;154.50;29.20;;;;;;;;;;5041966;28;20669;-51
2023/12/24 03:57:39;;;;;;;156.10;28.60;;;;;;;;;;5042369;28;20194;-51
2023/12/24 04:00:06;;;;;;;167.23;31.10;;;;;;;;;;5048954;28;20426;-51
2023/12/24 04:02:33;;;;;;;179.40;32.97;;;;;;;;;;5040683;28;20215;-51
2023/12/24 04:04:59;;;;;;;201.50;36.63;;;;;;;;;;5046598;28;20210;-51
2023/12/24 04:07:27;;;;;;;208.43;39.90;;;;;;;;;;5043993;28;20581;-51
2023/12/24 04:09:53;;;;;;;224.17;43.13;;;;;;;;;;5040782;28;20233;-52
2023/12/24 04:12:19;;;;;;;159.90;30.43;;;;;;;;;;5045874;28;20215;-51
2023/12/24 04:14:47;;;;;;;178.83;35.30;;;;;;;;;;5043633;28;20680;-52
2023/12/24 04:17:14;;;;;;;199.57;37.70;;;;;;;;;;5040281;28;20573;-51
2023/12/24 04:19:40;;;;;;;201.03;36.23;;;;;;;;;;5050539;28;20784;-51
2023/12/24 04:22:08;;;;;;;244.73;47.67;;;;;;;;;;5038420;28;20576;-51
2023/12/24 04:24:36;;;;;;;213.00;39.23;;;;;;;;;;5035425;28;20256;-52
2023/12/24 04:27:02;;;;;;;186.17;34.10;;;;;;;;;;5048379;28;21384;-51
2023/12/24 04:29:29;;;;;;;169.17;31.87;;;;;;;;;;5054221;28;20211;-51
2023/12/24 04:31:55;;;;;;;206.70;40.27;;;;;;;;;;5048326;28;20298;-51
2023/12/24 04:34:23;;;;;;;191.30;35.67;;;;;;;;;;5043408;28;20215;-51
2023/12/24 04:36:49;;;;;;;218.20;46.67;;;;;;;;;;5042646;28;20651;-51
2023/12/24 04:39:16;;;;;;;253.13;51.30;;;;;;;;;;5052955;28;20612;-51
2023/12/24 04:41:43;;;;;;;200.10;35.60;;;;;;;;;;5053148;28;20233;-51
2023/12/24 04:44:13;;;;;;;252.77;48.10;;;;;;;;;;5049582;28;23190;-51
2023/12/24 04:46:43;;;;;;;232.40;45.47;;;;;;;;;;5047799;28;20265;-51
2023/12/24 04:49:10;;;;;;;178.60;32.47;;;;;;;;;;5046096;28;20349;-52
2023/12/24 04:51:36;;;;;;;165.47;29.40;;;;;;;;;;5047210;28;20589;-51
2023/12/24 04:54:03;;;;;;;208.00;38.50;;;;;;;;;;5047612;28;20175;-52
2023/12/24 04:56:31;;;;;;;203.10;36.63;;;;;;;;;;5040420;28;20214;-51
2023/12/24 04:58:58;;;;;;;169.13;30.37;;;;;;;;;;5051124;28;20908;-51
2023/12/24 05:01:24;;;;;;;185.33;32.87;;;;;;;;;;5043451;28;20702;-51
2023/12/24 05:03:51;;;;;;;220.60;40.63;;;;;;;;;;5045137;28;20681;-51
2023/12/24 05:06:17;;;;;;;263.33;49.57;;;;;;;;;;5045292;28;20188;-51
2023/12/24 05:08:44;;;;;;;183.47;33.77;;;;;;;;;;5049333;28;20208;-51
2023/12/24 05:11:10;;;;;;;188.50;34.60;;;;;;;;;;5040208;28;20223;-51
2023/12/24 05:13:37;;;;;;;143.90;25.93;;;;;;;;;;5052717;28;20310;-51
2023/12/24 05:16:04;;;;;;;210.57;39.30;;;;;;;;;;5045301;28;20212;-51
2023/12/24 05:18:32;;;;;;;176.93;32.17;;;;;;;;;;5044494;28;20192;-51
2023/12/24 05:20:58;;;;;;;218.30;40.27;;;;;;;;;;5047316;28;20203;-51
2023/12/24 05:23:25;;;;;;;209.23;37.27;;;;;;;;;;5047427;28;20223;-52
2023/12/24 05:25:54;;;;;;;229.47;42.23;;;;;;;;;;5044582;28;20463;-51
2023/12/24 05:28:21;;;;;;;165.30;29.43;;;;;;;;;;5042072;28;20254;-51
2023/12/24 05:30:47;;;;;;;164.60;30.20;;;;;;;;;;5048459;28;20281;-52
2023/12/24 05:33:14;;;;;;;192.53;36.67;;;;;;;;;;5049219;28;20187;-51
2023/12/24 05:35:40;;;;;;;151.20;27.40;;;;;;;;;;5045430;28;20251;-51
2023/12/24 05:38:07;;;;;;;218.47;38.57;;;;;;;;;;5052174;28;20223;-51
2023/12/24 05:40:34;;;;;;;168.43;30.17;;;;;;;;;;5040989;28;20366;-51
2023/12/24 05:43:01;;;;;;;229.37;44.37;;;;;;;;;;5049482;28;20219;-51
2023/12/24 05:45:28;;;;;;;169.23;30.47;;;;;;;;;;5044660;28;20222;-51
2023/12/24 05:47:55;;;;;;;234.33;42.50;;;;;;;;;;5052175;28;20425;-51
2023/12/24 05:50:23;;;;;;;162.00;30.80;;;;;;;;;;5039805;28;20288;-51
2023/12/24 05:52:49;;;;;;;216.67;42.70;;;;;;;;;;5043718;28;20250;-51
2023/12/24 05:55:15;;;;;;;191.73;33.67;;;;;;;;;;5063872;22;21269;-48
2023/12/24 05:57:41;;;;;;;195.03;40.73;;;;;;;;;;5050836;28;20559;-48
2023/12/24 06:00:09;;;;;;;250.77;52.30;;;;;;;;;;5022857;28;20359;-48
2023/12/24 06:02:35;;;;;;;215.87;43.17;;;;;;;;;;5052679;28;20836;-51
2023/12/24 06:05:02;;;;;;;313.97;67.27;;;;;;;;;;5044300;28;21048;-52
2023/12/24 06:07:28;;;;;;;212.57;41.03;;;;;;;;;;5028284;28;20776;-54
2023/12/24 06:09:54;;;;;;;201.87;40.97;;;;;;;;;;5037157;28;20214;-52
2023/12/24 06:12:21;;;;;;;194.63;37.70;;;;;;;;;;5038317;28;20214;-52
2023/12/24 06:14:47;;;;;;;233.80;45.50;;;;;;;;;;5023431;28;20212;-51
2023/12/24 06:17:14;;;;;;;228.37;46.43;;;;;;;;;;5026341;28;20380;-49
2023/12/24 06:19:40;;;;;;;276.00;55.87;;;;;;;;;;5031561;28;20212;-49
2023/12/24 06:22:07;;;;;;;250.90;49.63;;;;;;;;;;5024775;28;20840;-49
2023/12/24 06:24:34;;;;;;;270.30;55.80;;;;;;;;;;5009987;28;20274;-50
2023/12/24 06:27:01;;;;;;;218.67;43.97;;;;;;;;;;5030677;28;20187;-49
2023/12/24 06:29:27;;;;;;;275.93;59.33;;;;;;;;;;5023496;28;20264;-49
2023/12/24 06:31:57;;;;;;;217.33;45.17;;;;;;;;;;5025882;28;20231;-49
2023/12/24 06:34:23;;;;;;;216.30;41.93;;;;;;;;;;5030896;28;20227;-49
2023/12/24 06:36:49;;;;;;;221.03;45.60;;;;;;;;;;5028113;28;20223;-49
2023/12/24 06:39:15;;;;;;;269.53;53.40;;;;;;;;;;5022012;28;20191;-49
2023/12/24 06:41:45;;;;;;;215.57;45.10;;;;;;;;;;5028932;28;20641;-49
2023/12/24 06:44:12;;;;;;;246.03;52.03;;;;;;;;;;5027208;28;20680;-51
2023/12/24 06:46:39;;;;;;;135.53;27.93;;;;;;;;;;5030479;28;20211;-51
2023/12/24 06:49:05;;;;;;;181.20;39.30;;;;;;;;;;5033082;28;20686;-49
2023/12/24 06:51:32;;;;;;;170.63;34.83;;;;;;;;;;5035665;28;20199;-50
2023/12/24 06:53:58;;;;;;;230.20;46.53;;;;;;;;;;5019100;28;20241;-49
2023/12/24 06:56:24;;;;;;;193.43;35.47;;;;;;;;;;5030338;28;20768;-50
2023/12/24 06:58:50;;;;;;;220.87;46.17;;;;;;;;;;5030694;28;20269;-50
2023/12/24 07:01:17;;;;;;;184.43;35.03;;;;;;;;;;5020049;28;20218;-49
2023/12/24 07:03:43;;;;;;;216.73;44.20;;;;;;;;;;5027597;28;20366;-49
2023/12/24 07:06:13;;;;;;;222.30;45.83;;;;;;;;;;5025216;28;20208;-50
2023/12/24 07:08:39;;;;;;;203.43;44.97;;;;;;;;;;5031116;28;22313;-49
2023/12/24 07:11:06;;;;;;;240.30;48.17;;;;;;;;;;5030970;28;20216;-49
2023/12/24 07:13:32;;;;;;;195.33;37.77;;;;;;;;;;5028327;28;20211;-49
2023/12/24 07:15:59;;;;;;;252.13;50.03;;;;;;;;;;5028323;28;20333;-49
2023/12/24 07:18:26;;;;;;;220.47;41.97;;;;;;;;;;5030777;28;21270;-49
2023/12/24 07:20:52;;;;;;;206.90;41.13;;;;;;;;;;5033064;28;20186;-49
2023/12/24 07:23:18;;;;;;;240.67;51.43;;;;;;;;;;5024129;28;21017;-49
2023/12/24 07:25:45;;;;;;;274.40;56.07;;;;;;;;;;5032882;28;20590;-49
2023/12/24 07:28:11;;;;;;;230.90;47.87;;;;;;;;;;5025073;28;20227;-49
2023/12/24 07:30:37;;;;;;;265.70;52.40;;;;;;;;;;5025571;28;20184;-50
2023/12/24 07:33:07;;;;;;;279.47;56.13;;;;;;;;;;5013754;28;20246;-50
2023/12/24 07:35:34;;;;;;;219.30;46.07;;;;;;;;;;5012170;28;20243;-50
2023/12/24 07:38:03;;;;;;;235.90;49.20;;;;;;;;;;5026402;28;20311;-50
2023/12/24 07:40:29;;;;;;;224.23;46.03;;;;;;;;;;5010943;28;20463;-51
2023/12/24 07:42:59;;;;;;;248.57;51.43;;;;;;;;;;5003503;28;20273;-50
2023/12/24 07:45:27;;;;;;;207.70;42.87;;;;;;;;;;5029799;28;20334;-50
2023/12/24 07:47:53;;;;;;;259.17;49.50;;;;;;;;;;5019851;28;20188;-50
2023/12/24 07:50:20;;;;;;;336.70;73.47;;;;;;;;;;5010078;28;20207;-50
2023/12/24 07:52:47;;;;;;;205.63;40.23;;;;;;;;;;5039835;28;20317;-48
2023/12/24 07:55:14;;;;;;;209.90;41.77;;;;;;;;;;5039468;28;20277;-48
2023/12/24 07:57:40;;;;;;;183.70;36.00;;;;;;;;;;5044465;28;20179;-48
2023/12/24 08:00:07;;;;;;;194.97;38.63;;;;;;;;;;5046365;28;20339;-48
2023/12/24 08:02:33;;;;;;;229.20;45.70;;;;;;;;;;5046153;28;20223;-47
2023/12/24 08:05:00;;;;;;;185.77;39.17;;;;;;;;;;5047873;28;20261;-47
2023/12/24 08:07:27;;;;;;;198.50;37.73;;;;;;;;;;5048666;28;20566;-48
2023/12/24 08:09:55;;;;;;;198.17;40.10;;;;;;;;;;5048741;28;20238;-47
2023/12/24 08:12:22;;;;;;;223.17;43.53;;;;;;;;;;5049761;28;20200;-47
2023/12/24 08:14:51;;;;;;;175.23;37.17;;;;;;;;;;5049536;28;20755;-48
2023/12/24 08:17:17;;;;;;;200.03;41.17;;;;;;;;;;5047857;28;20223;-48
2023/12/24 08:19:43;;;;;;;144.47;31.10;;;;;;;;;;5049126;28;20215;-49
2023/12/24 08:22:11;;;;;;;163.53;35.23;;;;;;;;;;5030914;28;20211;-48
2023/12/24 08:24:38;;;;;;;144.27;39.13;;;;;;;;;;5047974;28;20192;-50
2023/12/24 08:27:22;;;;;;;184.90;43.90;;;;;;;;;;5051675;28;20195;-49
2023/12/24 08:29:48;;;;;;;207.43;53.73;;;;;;;;;;5048637;28;20212;-49
2023/12/24 08:32:14;;;;;;;208.00;49.13;;;;;;;;;;5047979;28;20314;-49
2023/12/24 08:34:40;;;;;;;172.47;37.20;;;;;;;;;;5048673;28;20207;-49
2023/12/24 08:37:06;;;;;;;163.67;44.80;;;;;;;;;;5048605;28;20408;-46
2023/12/24 08:39:32;;;;;;;207.83;61.30;;;;;;;;;;5049272;28;20255;-48
2023/12/24 08:41:59;;;;;;;181.03;71.97;;;;;;;;;;5048407;28;20267;-48
2023/12/24 08:44:28;;;;;;;262.10;99.53;;;;;;;;;;5048624;28;20223;-48
2023/12/24 08:46:54;;;;;;;318.03;123.37;;;;;;;;;;5048777;28;20227;-48
2023/12/24 08:49:20;;;;;;;340.00;130.83;;;;;;;;;;5030742;28;20207;-48
2023/12/24 08:51:46;;;;;;;233.93;94.53;;;;;;;;;;5048416;28;20219;-48
2023/12/24 08:54:12;;;;;;;389.33;143.63;;;;;;;;;;5035521;28;20405;-50
2023/12/24 08:56:38;;;;;;;400.20;142.67;;;;;;;;;;5024773;28;20250;-50
2023/12/24 08:59:07;;;;;;;280.13;97.10;;;;;;;;;;5019360;28;20716;-51
2023/12/24 09:01:34;;;;;;;263.97;86.60;;;;;;;;;;5029192;28;20214;-51
2023/12/24 09:04:00;;;;;;;234.83;83.07;;;;;;;;;;5030552;28;20216;-51
2023/12/24 09:06:27;;;;;;;334.87;109.17;;;;;;;;;;5016693;28;20203;-49
2023/12/24 09:08:53;;;;;;;236.97;62.40;;;;;;;;;;5020035;28;20197;-50
2023/12/24 09:11:19;;;;;;;364.80;104.33;;;;;;;;;;5022142;28;20589;-49
2023/12/24 09:13:45;;;;;;;215.27;64.53;;;;;;;;;;5032458;28;20217;-51
2023/12/24 09:16:11;;;;;;;173.03;53.83;;;;;;;;;;5025247;28;20666;-50
2023/12/24 09:18:37;;;;;;;187.20;63.13;;;;;;;;;;5028961;28;20416;-50
2023/12/24 09:21:03;;;;;;;364.87;121.33;;;;;;;;;;5023671;28;20183;-50
2023/12/24 09:23:29;;;;;;;279.17;91.27;;;;;;;;;;5024567;28;20224;-50
2023/12/24 09:25:55;;;;;;;318.40;116.33;;;;;;;;;;5018445;28;20584;-50
2023/12/24 09:28:21;;;;;;;355.00;127.10;;;;;;;;;;5027860;28;20237;-50
2023/12/24 09:30:47;;;;;;;219.27;91.47;;;;;;;;;;5026458;28;20305;-50
2023/12/24 09:33:12;;;;;;;261.97;109.90;;;;;;;;;;5013608;28;20301;-50
2023/12/24 09:35:40;;;;;;;296.77;121.17;;;;;;;;;;5027650;28;20220;-50
2023/12/24 09:38:06;;;;;;;301.30;120.20;;;;;;;;;;5020228;28;20203;-50
2023/12/24 09:40:32;;;;;;;321.07;126.80;;;;;;;;;;5028084;28;20639;-50
2023/12/24 09:42:59;;;;;;;320.37;125.20;;;;;;;;;;5021386;28;20629;-50
2023/12/24 09:45:25;;;;;;;494.80;192.30;;;;;;;;;;5026019;28;20214;-48
2023/12/24 09:47:51;;;;;;;432.67;159.67;;;;;;;;;;5022665;28;20196;-48
2023/12/24 09:50:17;;;;;;;403.03;154.57;;;;;;;;;;5027882;28;20211;-49
2023/12/24 09:52:45;;;;;;;414.40;163.67;;;;;;;;;;5027207;28;20231;-48
2023/12/24 09:55:11;;;;;;;332.27;134.93;;;;;;;;;;5020922;28;20572;-48
2023/12/24 09:57:37;;;;;;;252.67;105.93;;;;;;;;;;5026277;28;20226;-48
2023/12/24 10:00:08;;;;;;;353.97;131.20;;;;;;;;;;5023391;28;20748;-49
2023/12/24 10:02:34;;;;;;;402.83;154.60;;;;;;;;;;5025751;28;20231;-48
2023/12/24 10:05:03;;;;;;;387.23;153.20;;;;;;;;;;5024757;28;20285;-49
2023/12/24 10:07:37;;;;;;;337.70;140.90;;;;;;;;;;5030547;28;20318;-48
2023/12/24 10:10:03;;;;;;;339.80;140.83;;;;;;;;;;5022763;28;20467;-49
2023/12/24 10:12:29;;;;;;;325.20;134.93;;;;;;;;;;5024399;28;20697;-50
2023/12/24 10:14:57;;;;;;;283.47;128.10;;;;;;;;;;5031371;28;20179;-49
2023/12/24 10:17:30;;;;;;;390.23;156.07;;;;;;;;;;5011923;28;20216;-50
2023/12/24 10:19:57;;;;;;;377.43;144.43;;;;;;;;;;5033654;28;20212;-50
2023/12/24 10:22:23;;;;;;;383.67;147.17;;;;;;;;;;5026257;28;20710;-50
2023/12/24 10:24:50;;;;;;;339.23;137.40;;;;;;;;;;5020717;28;20219;-49
2023/12/24 10:27:16;;;;;;;419.57;163.50;;;;;;;;;;5023622;28;20207;-49
2023/12/24 10:29:43;;;;;;;365.83;153.23;;;;;;;;;;5029091;28;20252;-49
2023/12/24 10:32:10;;;;;;;411.20;153.65;;;;;;;;;;5023448;28;20228;-49
2023/12/24 10:34:37;;;;;;;390.33;158.77;;;;;;;;;;5019858;28;20690;-50
2023/12/24 10:37:18;;;;;;;402.23;160.53;;;;;;;;;;5022519;28;20230;-49
2023/12/24 10:39:45;;;;;;;456.83;176.83;;;;;;;;;;5021692;28;20223;-49
2023/12/24 10:42:11;;;;;;;438.40;164.33;;;;;;;;;;5017640;28;20671;-49
2023/12/24 10:44:39;;;;;;;307.83;137.00;;;;;;;;;;5021693;28;20252;-49
2023/12/24 10:47:05;;;;;;;351.17;146.90;;;;;;;;;;5022527;28;20258;-50
2023/12/24 10:49:31;;;;;;;345.03;146.47;;;;;;;;;;5021793;28;20689;-49
2023/12/24 10:51:59;;;;;;;256.97;115.10;;;;;;;;;;5033065;28;20230;-49
2023/12/24 10:54:25;;;;;;;362.13;151.73;;;;;;;;;;5015488;28;20226;-49
2023/12/24 10:57:00;;;;;;;260.67;114.70;;;;;;;;;;5027647;28;20713;-49
2023/12/24 10:59:31;;;;;;;273.43;110.80;;;;;;;;;;5023971;28;20222;-50
2023/12/24 11:01:59;;;;;;;325.83;133.80;;;;;;;;;;5030681;28;20219;-50
2023/12/24 11:04:48;;;;;;;286.30;115.03;;;;;;;;;;5012320;28;20222;-50
2023/12/24 11:07:32;;;;;;;232.10;105.33;;;;;;;;;;5029354;28;20230;-50
2023/12/24 11:10:00;;;;;;;256.23;111.17;;;;;;;;;;5017055;28;20249;-49
2023/12/24 11:12:37;;;;;;;290.33;117.83;;;;;;;;;;5024244;28;20215;-49
2023/12/24 11:15:04;;;;;;;301.53;122.27;;;;;;;;;;5024741;28;20530;-49
2023/12/24 11:17:50;;;;;;;286.93;113.60;;;;;;;;;;5025100;28;20579;-50
2023/12/24 11:20:19;;;;;;;263.03;111.90;;;;;;;;;;5027299;28;20773;-50
2023/12/24 11:23:04;;;;;;;222.70;100.93;;;;;;;;;;5012080;28;20220;-50
2023/12/24 11:25:59;;;;;;;265.33;120.40;;;;;;;;;;5022899;28;20224;-50
2023/12/24 11:28:25;;;;;;;296.13;126.83;;;;;;;;;;5013321;28;20327;-50
2023/12/24 11:30:51;;;;;;;269.80;119.57;;;;;;;;;;5022098;28;20203;-50
2023/12/24 11:33:29;;;;;;;280.57;117.40;;;;;;;;;;5031067;28;20723;-49
2023/12/24 11:35:56;;;;;;;294.70;119.30;;;;;;;;;;5023218;28;20498;-49
2023/12/24 11:38:34;;;;;;;315.10;123.23;;;;;;;;;;5033256;28;20863;-50
2023/12/24 11:41:04;;;;;;;311.17;129.70;;;;;;;;;;5007671;28;20314;-49
2023/12/24 11:43:30;;;;;;;313.17;135.43;;;;;;;;;;5029985;28;20216;-50
2023/12/24 11:45:57;;;;;;;349.80;141.73;;;;;;;;;;5024463;28;20235;-49
2023/12/24 11:48:23;;;;;;;293.63;124.47;;;;;;;;;;5028612;28;20566;-50
2023/12/24 11:51:02;;;;;;;344.13;132.47;;;;;;;;;;5025238;28;20234;-49
2023/12/24 11:53:31;;;;;;;402.00;162.80;;;;;;;;;;5028832;28;20222;-50
2023/12/24 11:56:17;;;;;;;316.10;129.97;;;;;;;;;;5038733;22;20280;-52
2023/12/24 11:58:49;;;;;;;335.10;130.17;;;;;;;;;;5041987;28;20207;-53
2023/12/24 12:01:24;;;;;;;292.77;122.60;;;;;;;;;;5036125;28;20302;-52
2023/12/24 12:03:54;;;;;;;293.43;121.43;;;;;;;;;;5042304;28;20767;-53
2023/12/24 12:06:20;;;;;;;336.47;136.37;;;;;;;;;;5041224;28;20234;-52
2023/12/24 12:08:46;;;;;;;390.70;153.70;;;;;;;;;;5039694;28;20242;-53
2023/12/24 12:11:12;;;;;;;390.57;153.30;;;;;;;;;;5045768;28;20222;-53
2023/12/24 12:13:38;;;;;;;456.30;176.27;;;;;;;;;;5044319;28;20288;-53
2023/12/24 12:16:04;;;;;;;456.57;175.63;;;;;;;;;;5039124;28;20318;-53
2023/12/24 12:18:30;;;;;;;332.20;137.07;;;;;;;;;;5041950;28;20282;-53
2023/12/24 12:20:56;;;;;;;344.63;139.30;;;;;;;;;;5040652;28;20310;-53
2023/12/24 12:23:22;;;;;;;421.87;166.20;;;;;;;;;;5042502;28;20304;-53
2023/12/24 12:25:48;;;;;;;389.07;155.40;;;;;;;;;;5042601;28;20223;-53
2023/12/24 12:28:14;;;;;;;388.53;153.07;;;;;;;;;;5039932;28;20622;-53
2023/12/24 12:30:40;;;;;;;406.17;161.73;;;;;;;;;;5040066;28;20175;-53
2023/12/24 12:33:06;;;;;;;371.87;147.73;;;;;;;;;;5040020;28;20714;-53
2023/12/24 12:35:33;;;;;;;433.30;166.07;;;;;;;;;;5040565;28;20203;-53
2023/12/24 12:37:59;;;;;;;440.93;172.73;;;;;;;;;;5038095;28;20344;-52
2023/12/24 12:40:25;;;;;;;333.70;133.77;;;;;;;;;;5046117;28;20230;-53
2023/12/24 12:42:50;;;;;;;312.63;128.00;;;;;;;;;;5039953;28;20216;-53
2023/12/24 12:45:16;;;;;;;337.63;134.73;;;;;;;;;;5043362;28;20234;-53
2023/12/24 12:47:42;;;;;;;428.57;171.03;;;;;;;;;;5038075;28;20249;-52
2023/12/24 12:50:09;;;;;;;398.97;159.37;;;;;;;;;;5040224;28;20242;-53
2023/12/24 12:52:35;;;;;;;377.13;154.87;;;;;;;;;;5040613;28;20750;-52
2023/12/24 12:55:02;;;;;;;327.00;136.93;;;;;;;;;;5036967;28;20318;-52
2023/12/24 12:57:29;;;;;;;303.10;129.97;;;;;;;;;;5047915;28;20207;-52
2023/12/24 13:00:08;;;;;;;383.97;156.50;;;;;;;;;;5040558;28;20930;-53
2023/12/24 13:02:34;;;;;;;304.87;127.63;;;;;;;;;;5045410;28;20822;-52
2023/12/24 13:05:00;;;;;;;320.53;129.43;;;;;;;;;;5047739;28;20301;-53
2023/12/24 13:07:29;;;;;;;348.27;139.77;;;;;;;;;;5045339;28;20267;-52
2023/12/24 13:09:55;;;;;;;379.17;155.37;;;;;;;;;;5043316;28;20303;-52
2023/12/24 13:12:21;;;;;;;332.40;137.50;;;;;;;;;;5048439;28;20277;-52
2023/12/24 13:14:52;;;;;;;364.60;151.20;;;;;;;;;;5041335;28;20215;-52
2023/12/24 13:17:22;;;;;;;359.77;148.93;;;;;;;;;;5038593;28;20223;-52
2023/12/24 13:19:48;;;;;;;325.67;136.50;;;;;;;;;;5044694;28;20449;-52
2023/12/24 13:22:14;;;;;;;314.07;134.20;;;;;;;;;;5043899;28;20226;-53
2023/12/24 13:24:41;;;;;;;332.13;140.47;;;;;;;;;;5039733;28;20621;-53
2023/12/24 13:27:07;;;;;;;358.00;147.23;;;;;;;;;;5040612;28;20666;-53
2023/12/24 13:29:35;;;;;;;325.23;137.17;;;;;;;;;;5043424;28;20218;-53
2023/12/24 13:32:01;;;;;;;377.90;153.73;;;;;;;;;;5041486;28;20775;-52
2023/12/24 13:34:27;;;;;;;350.00;141.03;;;;;;;;;;5044895;28;20721;-53
2023/12/24 13:36:53;;;;;;;365.20;152.77;;;;;;;;;;5039026;28;20223;-53
2023/12/24 13:39:19;;;;;;;320.30;138.13;;;;;;;;;;5036711;28;20229;-52
2023/12/24 13:41:45;;;;;;;335.83;144.00;;;;;;;;;;5043408;28;20211;-52
2023/12/24 13:44:11;;;;;;;336.20;143.47;;;;;;;;;;5044084;28;20215;-52
2023/12/24 13:46:38;;;;;;;346.40;143.27;;;;;;;;;;5039054;28;20457;-53
2023/12/24 13:49:04;;;;;;;354.60;148.23;;;;;;;;;;5042086;28;20219;-52
2023/12/24 13:51:33;;;;;;;299.77;127.40;;;;;;;;;;5046808;28;20230;-53
2023/12/24 13:53:59;;;;;;;304.07;126.47;;;;;;;;;;5044822;28;20172;-53
2023/12/24 13:56:25;;;;;;;384.53;150.90;;;;;;;;;;5021521;28;20323;-52
2023/12/24 13:58:52;;;;;;;325.00;132.80;;;;;;;;;;5042516;28;20211;-52
2023/12/24 14:01:18;;;;;;;294.13;128.03;;;;;;;;;;5038798;28;20724;-52
2023/12/24 14:03:44;;;;;;;352.80;142.50;;;;;;;;;;5038335;28;20223;-52